sensor_id;sensor_type;location;lat;lon;timestamp;temperature;humidity
21928;DHT22;11128;51.096;17.190;2023-02-03T00:03:24;-0.70;99.90
21928;DHT22;11128;51.096;17.190;2023-02-03T00:08:29;-0.80;1.00
21928;DHT22;11128;51.096;17.190;2023-02-03T00:13:30;-0.80;1.00
21928;DHT22;11128;51.096;17.190;2023-02-03T00:18:32;-1.10;99.90
21928;DHT22;11128;51.096;17.190;2023-02-03T00:23:34;-1.00;99.90
21928;DHT22;11128;51.096;17.190;2023-02-03T00:28:35;-1.00;99.90
21928;DHT22;11128;51.096;17.190;2023-02-03T00:33:37;-0.50;1.00
21928;DHT22;11128;51.096;17.190;2023-02-03T00:43:40;-0.80;1.00
21928;DHT22;11128;51.096;17.190;2023-02-03T00:48:42;-1.20;1.00
21928;DHT22;11128;51.096;17.190;2023-02-03T00:53:43;-1.00;99.90
21928;DHT22;11128;51.096;17.190;2023-02-03T00:58:44;-0.90;99.90
21928;DHT22;11128;51.096;17.190;2023-02-03T01:03:46;-0.90;1.00
21928;DHT22;11128;51.096;17.190;2023-02-03T01:08:48;-1.30;1.00
21928;DHT22;11128;51.096;17.190;2023-02-03T01:13:51;-1.30;11.50
21928;DHT22;11128;51.096;17.190;2023-02-03T01:18:54;-1.10;1.00
21928;DHT22;11128;51.096;17.190;2023-02-03T01:23:55;-1.20;1.00
21928;DHT22;11128;51.096;17.190;2023-02-03T01:28:59;-1.20;1.00
21928;DHT22;11128;51.096;17.190;2023-02-03T01:34:02;-1.20;1.00
21928;DHT22;11128;51.096;17.190;2023-02-03T01:39:04;-1.00;1.00
21928;DHT22;11128;51.096;17.190;2023-02-03T01:44:34;-1.00;1.00
21928;DHT22;11128;51.096;17.190;2023-02-03T01:49:39;-1.20;99.90
21928;DHT22;11128;51.096;17.190;2023-02-03T01:54:44;-1.00;99.90
21928;DHT22;11128;51.096;17.190;2023-02-03T01:59:47;-1.20;99.90
21928;DHT22;11128;51.096;17.190;2023-02-03T02:10:06;-1.20;1.00
21928;DHT22;11128;51.096;17.190;2023-02-03T02:15:08;-1.00;99.90
21928;DHT22;11128;51.096;17.190;2023-02-03T02:20:37;-0.70;99.90
21928;DHT22;11128;51.096;17.190;2023-02-03T02:36:25;-0.90;87.10
21928;DHT22;11128;51.096;17.190;2023-02-03T02:41:51;-0.90;16.70
21928;DHT22;11128;51.096;17.190;2023-02-03T02:46:57;-0.90;1.00
21928;DHT22;11128;51.096;17.190;2023-02-03T02:52:01;0.60;1.00
21928;DHT22;11128;51.096;17.190;2023-02-03T02:57:04;-0.80;1.00
21928;DHT22;11128;51.096;17.190;2023-02-03T03:02:09;-0.80;1.00
21928;DHT22;11128;51.096;17.190;2023-02-03T03:07:17;-0.60;99.90
21928;DHT22;11128;51.096;17.190;2023-02-03T03:12:28;-0.80;99.90
21928;DHT22;11128;51.096;17.190;2023-02-03T03:17:36;-0.80;99.90
21928;DHT22;11128;51.096;17.190;2023-02-03T03:22:44;-0.80;1.00
21928;DHT22;11128;51.096;17.190;2023-02-03T03:28:00;-0.90;1.00
21928;DHT22;11128;51.096;17.190;2023-02-03T03:33:03;-0.80;1.00
21928;DHT22;11128;51.096;17.190;2023-02-03T03:38:16;-0.70;1.00
21928;DHT22;11128;51.096;17.190;2023-02-03T03:43:23;-0.80;1.00
21928;DHT22;11128;51.096;17.190;2023-02-03T03:48:37;-0.70;1.00
21928;DHT22;11128;51.096;17.190;2023-02-03T03:53:42;-1.00;1.00
21928;DHT22;11128;51.096;17.190;2023-02-03T03:58:44;0.10;1.00
21928;DHT22;11128;51.096;17.190;2023-02-03T04:03:54;-0.80;1.00
21928;DHT22;11128;51.096;17.190;2023-02-03T04:08:56;-0.60;1.00
21928;DHT22;11128;51.096;17.190;2023-02-03T04:13:58;-0.70;1.00
21928;DHT22;11128;51.096;17.190;2023-02-03T04:19:00;-0.50;1.00
21928;DHT22;11128;51.096;17.190;2023-02-03T04:24:02;-0.60;1.00
21928;DHT22;11128;51.096;17.190;2023-02-03T04:29:03;-0.60;99.90
21928;DHT22;11128;51.096;17.190;2023-02-03T04:34:05;-0.50;12.80
21928;DHT22;11128;51.096;17.190;2023-02-03T04:44:08;-0.50;1.00
21928;DHT22;11128;51.096;17.190;2023-02-03T04:49:10;-0.40;1.00
21928;DHT22;11128;51.096;17.190;2023-02-03T04:54:11;-0.30;1.00
21928;DHT22;11128;51.096;17.190;2023-02-03T04:59:13;0.10;1.00
21928;DHT22;11128;51.096;17.190;2023-02-03T05:04:14;-0.10;99.90
21928;DHT22;11128;51.096;17.190;2023-02-03T05:09:16;1.30;99.90
21928;DHT22;11128;51.096;17.190;2023-02-03T05:14:17;-0.20;99.90
21928;DHT22;11128;51.096;17.190;2023-02-03T05:19:19;-0.20;99.90
21928;DHT22;11128;51.096;17.190;2023-02-03T05:24:20;-0.20;84.30
21928;DHT22;11128;51.096;17.190;2023-02-03T05:29:21;0.40;1.00
21928;DHT22;11128;51.096;17.190;2023-02-03T05:34:23;1.30;99.90
21928;DHT22;11128;51.096;17.190;2023-02-03T05:39:24;0.00;99.90
21928;DHT22;11128;51.096;17.190;2023-02-03T05:44:27;0.20;1.00
21928;DHT22;11128;51.096;17.190;2023-02-03T05:49:29;0.10;1.00
21928;DHT22;11128;51.096;17.190;2023-02-03T05:54:30;0.80;99.90
21928;DHT22;11128;51.096;17.190;2023-02-03T05:59:34;0.70;1.00
21928;DHT22;11128;51.096;17.190;2023-02-03T06:04:36;0.10;99.90
21928;DHT22;11128;51.096;17.190;2023-02-03T06:09:37;0.00;99.90
21928;DHT22;11128;51.096;17.190;2023-02-03T06:14:39;0.10;1.00
21928;DHT22;11128;51.096;17.190;2023-02-03T06:19:40;1.00;28.80
21928;DHT22;11128;51.096;17.190;2023-02-03T06:24:41;0.00;99.90
21928;DHT22;11128;51.096;17.190;2023-02-03T06:29:44;1.00;99.90
21928;DHT22;11128;51.096;17.190;2023-02-03T06:34:45;0.60;99.90
21928;DHT22;11128;51.096;17.190;2023-02-03T06:39:47;0.10;99.90
21928;DHT22;11128;51.096;17.190;2023-02-03T06:44:48;0.10;99.90
21928;DHT22;11128;51.096;17.190;2023-02-03T06:49:49;0.20;99.90
21928;DHT22;11128;51.096;17.190;2023-02-03T06:54:52;0.20;99.90
21928;DHT22;11128;51.096;17.190;2023-02-03T06:59:53;0.20;99.90
21928;DHT22;11128;51.096;17.190;2023-02-03T07:04:55;0.40;99.90
21928;DHT22;11128;51.096;17.190;2023-02-03T07:09:56;0.20;99.90
21928;DHT22;11128;51.096;17.190;2023-02-03T07:14:57;0.70;99.90
21928;DHT22;11128;51.096;17.190;2023-02-03T07:19:58;0.30;99.90
21928;DHT22;11128;51.096;17.190;2023-02-03T07:24:59;0.40;99.90
21928;DHT22;11128;51.096;17.190;2023-02-03T07:30:01;0.40;99.90
21928;DHT22;11128;51.096;17.190;2023-02-03T07:35:02;0.40;99.90
21928;DHT22;11128;51.096;17.190;2023-02-03T07:40:03;0.50;99.90
21928;DHT22;11128;51.096;17.190;2023-02-03T07:45:05;0.50;99.90
21928;DHT22;11128;51.096;17.190;2023-02-03T07:50:07;0.60;99.90
21928;DHT22;11128;51.096;17.190;2023-02-03T07:55:08;0.70;99.90
21928;DHT22;11128;51.096;17.190;2023-02-03T08:25:18;0.60;99.90
21928;DHT22;11128;51.096;17.190;2023-02-03T08:37:06;0.70;99.90
21928;DHT22;11128;51.096;17.190;2023-02-03T08:42:10;0.70;99.90
21928;DHT22;11128;51.096;17.190;2023-02-03T08:47:18;0.70;99.90
21928;DHT22;11128;51.096;17.190;2023-02-03T08:52:22;0.90;99.90
21928;DHT22;11128;51.096;17.190;2023-02-03T08:57:23;0.80;99.90
21928;DHT22;11128;51.096;17.190;2023-02-03T09:02:33;0.80;99.90
21928;DHT22;11128;51.096;17.190;2023-02-03T09:07:38;0.80;99.90
21928;DHT22;11128;51.096;17.190;2023-02-03T09:12:42;0.90;99.90
21928;DHT22;11128;51.096;17.190;2023-02-03T09:17:48;1.00;99.90
21928;DHT22;11128;51.096;17.190;2023-02-03T09:22:57;1.10;99.90
21928;DHT22;11128;51.096;17.190;2023-02-03T09:28:10;1.20;99.90
21928;DHT22;11128;51.096;17.190;2023-02-03T09:33:13;1.10;99.90
21928;DHT22;11128;51.096;17.190;2023-02-03T09:38:22;1.20;99.90
21928;DHT22;11128;51.096;17.190;2023-02-03T09:43:35;1.40;99.90
21928;DHT22;11128;51.096;17.190;2023-02-03T09:48:51;1.20;99.90
21928;DHT22;11128;51.096;17.190;2023-02-03T09:54:14;1.20;99.90
21928;DHT22;11128;51.096;17.190;2023-02-03T09:59:22;2.20;99.90
21928;DHT22;11128;51.096;17.190;2023-02-03T10:04:37;1.30;99.90
21928;DHT22;11128;51.096;17.190;2023-02-03T10:09:57;1.30;99.90
21928;DHT22;11128;51.096;17.190;2023-02-03T10:20:44;1.40;99.90
21928;DHT22;11128;51.096;17.190;2023-02-03T10:25:51;1.50;99.90
21928;DHT22;11128;51.096;17.190;2023-02-03T10:30:57;1.50;99.90
21928;DHT22;11128;51.096;17.190;2023-02-03T10:36:12;1.90;99.90
21928;DHT22;11128;51.096;17.190;2023-02-03T10:41:19;1.70;99.90
21928;DHT22;11128;51.096;17.190;2023-02-03T10:46:26;1.90;99.90
21928;DHT22;11128;51.096;17.190;2023-02-03T10:57:11;1.90;99.90
21928;DHT22;11128;51.096;17.190;2023-02-03T11:02:26;1.90;99.90
21928;DHT22;11128;51.096;17.190;2023-02-03T11:07:29;2.00;99.90
21928;DHT22;11128;51.096;17.190;2023-02-03T11:12:30;2.10;99.90
21928;DHT22;11128;51.096;17.190;2023-02-03T11:17:34;2.30;99.90
21928;DHT22;11128;51.096;17.190;2023-02-03T11:22:37;2.10;99.90
21928;DHT22;11128;51.096;17.190;2023-02-03T11:27:40;3.50;99.90
21928;DHT22;11128;51.096;17.190;2023-02-03T11:32:43;2.20;99.90
21928;DHT22;11128;51.096;17.190;2023-02-03T11:37:51;2.20;99.90
21928;DHT22;11128;51.096;17.190;2023-02-03T12:15:39;2.50;99.90
21928;DHT22;11128;51.096;17.190;2023-02-03T12:25:56;2.60;99.90
21928;DHT22;11128;51.096;17.190;2023-02-03T12:31:06;2.60;99.90
21928;DHT22;11128;51.096;17.190;2023-02-03T12:36:14;2.70;99.90
21928;DHT22;11128;51.096;17.190;2023-02-03T12:41:28;2.90;99.90
21928;DHT22;11128;51.096;17.190;2023-02-03T12:46:39;3.20;99.90
21928;DHT22;11128;51.096;17.190;2023-02-03T12:56:50;3.90;99.90
21928;DHT22;11128;51.096;17.190;2023-02-03T13:01:59;4.30;99.90
21928;DHT22;11128;51.096;17.190;2023-02-03T13:17:58;4.70;99.90
21928;DHT22;11128;51.096;17.190;2023-02-03T13:23:06;4.90;99.90
21928;DHT22;11128;51.096;17.190;2023-02-03T13:44:44;5.10;99.90
21928;DHT22;11128;51.096;17.190;2023-02-03T13:49:53;5.20;99.90
21928;DHT22;11128;51.096;17.190;2023-02-03T13:54:56;5.40;99.90
21928;DHT22;11128;51.096;17.190;2023-02-03T13:59:57;5.40;99.90
21928;DHT22;11128;51.096;17.190;2023-02-03T14:04:59;5.50;99.90
21928;DHT22;11128;51.096;17.190;2023-02-03T14:25:27;5.60;99.90
21928;DHT22;11128;51.096;17.190;2023-02-03T14:30:29;5.60;99.90
21928;DHT22;11128;51.096;17.190;2023-02-03T14:40:41;6.00;99.90
21928;DHT22;11128;51.096;17.190;2023-02-03T14:56:51;5.50;99.90
21928;DHT22;11128;51.096;17.190;2023-02-03T15:02:20;5.50;99.90
21928;DHT22;11128;51.096;17.190;2023-02-03T15:07:44;5.40;99.90
21928;DHT22;11128;51.096;17.190;2023-02-03T15:12:53;5.40;99.90
21928;DHT22;11128;51.096;17.190;2023-02-03T15:17:57;5.30;99.90
21928;DHT22;11128;51.096;17.190;2023-02-03T15:23:00;5.70;99.90
21928;DHT22;11128;51.096;17.190;2023-02-03T15:28:31;5.30;99.90
21928;DHT22;11128;51.096;17.190;2023-02-03T15:33:34;5.30;99.90
21928;DHT22;11128;51.096;17.190;2023-02-03T15:38:41;5.40;99.90
21928;DHT22;11128;51.096;17.190;2023-02-03T15:43:45;3.80;99.90
21928;DHT22;11128;51.096;17.190;2023-02-03T15:59:01;5.30;99.90
21928;DHT22;11128;51.096;17.190;2023-02-03T16:04:08;5.40;99.90
21928;DHT22;11128;51.096;17.190;2023-02-03T16:14:57;5.30;99.90
21928;DHT22;11128;51.096;17.190;2023-02-03T16:30:22;5.30;99.90
21928;DHT22;11128;51.096;17.190;2023-02-03T16:35:42;5.30;99.90
21928;DHT22;11128;51.096;17.190;2023-02-03T16:41:03;5.30;99.90
21928;DHT22;11128;51.096;17.190;2023-02-03T16:46:30;5.20;99.90
21928;DHT22;11128;51.096;17.190;2023-02-03T16:51:50;5.10;99.90
21928;DHT22;11128;51.096;17.190;2023-02-03T16:56:51;5.10;99.90
21928;DHT22;11128;51.096;17.190;2023-02-03T17:01:52;5.40;99.90
21928;DHT22;11128;51.096;17.190;2023-02-03T17:06:54;4.90;99.90
21928;DHT22;11128;51.096;17.190;2023-02-03T17:11:55;4.90;99.90
21928;DHT22;11128;51.096;17.190;2023-02-03T17:16:56;4.90;99.90
21928;DHT22;11128;51.096;17.190;2023-02-03T17:21:58;4.80;99.90
21928;DHT22;11128;51.096;17.190;2023-02-03T17:27:00;5.10;99.90
21928;DHT22;11128;51.096;17.190;2023-02-03T17:32:01;4.80;99.90
21928;DHT22;11128;51.096;17.190;2023-02-03T17:37:03;4.80;99.90
21928;DHT22;11128;51.096;17.190;2023-02-03T17:42:04;4.80;99.90
21928;DHT22;11128;51.096;17.190;2023-02-03T17:47:06;4.90;99.90
21928;DHT22;11128;51.096;17.190;2023-02-03T17:52:07;4.80;99.90
21928;DHT22;11128;51.096;17.190;2023-02-03T17:57:08;4.80;99.90
21928;DHT22;11128;51.096;17.190;2023-02-03T18:02:10;4.80;99.90
21928;DHT22;11128;51.096;17.190;2023-02-03T18:07:11;5.10;99.90
21928;DHT22;11128;51.096;17.190;2023-02-03T18:12:13;4.80;99.90
21928;DHT22;11128;51.096;17.190;2023-02-03T18:17:14;4.80;99.90
21928;DHT22;11128;51.096;17.190;2023-02-03T18:22:15;4.70;99.90
21928;DHT22;11128;51.096;17.190;2023-02-03T18:27:18;4.70;99.90
21928;DHT22;11128;51.096;17.190;2023-02-03T18:32:20;4.70;99.90
21928;DHT22;11128;51.096;17.190;2023-02-03T18:37:21;4.60;99.90
21928;DHT22;11128;51.096;17.190;2023-02-03T18:42:22;5.60;99.90
21928;DHT22;11128;51.096;17.190;2023-02-03T18:47:24;4.60;99.90
21928;DHT22;11128;51.096;17.190;2023-02-03T18:52:25;4.60;99.90
21928;DHT22;11128;51.096;17.190;2023-02-03T18:57:27;4.70;99.90
21928;DHT22;11128;51.096;17.190;2023-02-03T19:02:29;4.60;99.90
21928;DHT22;11128;51.096;17.190;2023-02-03T19:07:30;4.60;99.90
21928;DHT22;11128;51.096;17.190;2023-02-03T19:12:32;4.60;99.90
21928;DHT22;11128;51.096;17.190;2023-02-03T19:17:34;4.70;99.90
21928;DHT22;11128;51.096;17.190;2023-02-03T19:22:35;4.70;99.90
21928;DHT22;11128;51.096;17.190;2023-02-03T19:27:38;4.80;99.90
21928;DHT22;11128;51.096;17.190;2023-02-03T19:32:40;4.80;99.90
21928;DHT22;11128;51.096;17.190;2023-02-03T19:37:42;4.80;99.90
21928;DHT22;11128;51.096;17.190;2023-02-03T19:42:44;4.70;99.90
21928;DHT22;11128;51.096;17.190;2023-02-03T19:47:45;4.70;99.90
21928;DHT22;11128;51.096;17.190;2023-02-03T19:52:47;4.70;99.90
21928;DHT22;11128;51.096;17.190;2023-02-03T19:57:49;4.70;99.90
21928;DHT22;11128;51.096;17.190;2023-02-03T20:02:51;4.80;99.90
21928;DHT22;11128;51.096;17.190;2023-02-03T20:07:52;4.80;99.90
21928;DHT22;11128;51.096;17.190;2023-02-03T20:12:54;4.80;99.90
21928;DHT22;11128;51.096;17.190;2023-02-03T20:17:56;4.90;99.90
21928;DHT22;11128;51.096;17.190;2023-02-03T20:22:57;4.80;99.90
21928;DHT22;11128;51.096;17.190;2023-02-03T20:27:59;4.80;99.90
21928;DHT22;11128;51.096;17.190;2023-02-03T20:33:03;4.80;99.90
21928;DHT22;11128;51.096;17.190;2023-02-03T20:38:06;4.90;99.90
21928;DHT22;11128;51.096;17.190;2023-02-03T20:43:22;4.90;99.90
21928;DHT22;11128;51.096;17.190;2023-02-03T20:48:24;4.90;99.90
21928;DHT22;11128;51.096;17.190;2023-02-03T20:53:26;4.90;99.90
21928;DHT22;11128;51.096;17.190;2023-02-03T20:58:31;4.90;99.90
21928;DHT22;11128;51.096;17.190;2023-02-03T21:03:34;4.90;99.90
21928;DHT22;11128;51.096;17.190;2023-02-03T21:09:16;4.90;99.90
21928;DHT22;11128;51.096;17.190;2023-02-03T21:14:35;4.80;99.90
21928;DHT22;11128;51.096;17.190;2023-02-03T21:19:37;4.80;99.90
21928;DHT22;11128;51.096;17.190;2023-02-03T21:24:39;4.70;99.90
21928;DHT22;11128;51.096;17.190;2023-02-03T21:29:44;4.70;99.90
21928;DHT22;11128;51.096;17.190;2023-02-03T21:34:47;4.70;99.90
21928;DHT22;11128;51.096;17.190;2023-02-03T21:39:48;4.70;99.90
21928;DHT22;11128;51.096;17.190;2023-02-03T21:44:50;4.70;99.90
21928;DHT22;11128;51.096;17.190;2023-02-03T21:49:51;4.70;99.90
21928;DHT22;11128;51.096;17.190;2023-02-03T21:54:52;4.70;99.90
21928;DHT22;11128;51.096;17.190;2023-02-03T21:59:54;4.70;99.90
21928;DHT22;11128;51.096;17.190;2023-02-03T22:04:56;4.70;99.90
21928;DHT22;11128;51.096;17.190;2023-02-03T22:09:58;4.70;99.90
21928;DHT22;11128;51.096;17.190;2023-02-03T22:14:59;4.70;99.90
21928;DHT22;11128;51.096;17.190;2023-02-03T22:20:01;4.70;99.90
21928;DHT22;11128;51.096;17.190;2023-02-03T22:25:03;4.70;99.90
21928;DHT22;11128;51.096;17.190;2023-02-03T22:30:04;4.70;99.90
21928;DHT22;11128;51.096;17.190;2023-02-03T22:35:06;4.80;99.90
21928;DHT22;11128;51.096;17.190;2023-02-03T22:40:10;4.80;99.90
21928;DHT22;11128;51.096;17.190;2023-02-03T22:45:13;4.80;99.90
21928;DHT22;11128;51.096;17.190;2023-02-03T22:50:14;4.80;99.90
21928;DHT22;11128;51.096;17.190;2023-02-03T22:55:16;4.80;99.90
21928;DHT22;11128;51.096;17.190;2023-02-03T23:00:22;4.80;99.90
21928;DHT22;11128;51.096;17.190;2023-02-03T23:05:24;4.90;99.90
21928;DHT22;11128;51.096;17.190;2023-02-03T23:10:27;4.90;99.90
21928;DHT22;11128;51.096;17.190;2023-02-03T23:15:31;4.90;99.90
21928;DHT22;11128;51.096;17.190;2023-02-03T23:20:32;4.90;99.90
21928;DHT22;11128;51.096;17.190;2023-02-03T23:25:33;4.90;99.90
21928;DHT22;11128;51.096;17.190;2023-02-03T23:30:34;5.20;99.90
21928;DHT22;11128;51.096;17.190;2023-02-03T23:35:35;4.80;99.90
21928;DHT22;11128;51.096;17.190;2023-02-03T23:40:54;4.80;99.90
21928;DHT22;11128;51.096;17.190;2023-02-03T23:45:56;4.70;99.90
21928;DHT22;11128;51.096;17.190;2023-02-03T23:50:57;5.60;99.90
21928;DHT22;11128;51.096;17.190;2023-02-03T23:55:58;4.50;99.90
